Time;durP1;ratioP1;P1;durP2;ratioP2;P2;SDS_P1;SDS_P2;PMS_P1;PMS_P2;Temp;Humidity;BMP_temperature;BMP_pressure;BME280_temperature;BME280_humidity;BME280_pressure;Samples;Min_cycle;Max_cycle;Signal;HPM_P1;HPM_P2
2022/09/28 00:02:06;;;;;;;0.10;0.10;;;;;;;12.23;100.00;96596.97;5099118;27;20019;-77
2022/09/28 00:04:32;;;;;;;0.25;0.25;;;;;;;12.21;100.00;96601.59;5115731;27;20407;-76
2022/09/28 00:06:58;;;;;;;0.52;0.52;;;;;;;12.23;100.00;96612.19;5116047;27;20031;-76
2022/09/28 00:09:24;;;;;;;0.45;0.30;;;;;;;12.17;100.00;96605.53;5116195;27;20023;-76
2022/09/28 00:11:52;;;;;;;6.90;1.50;;;;;;;12.18;100.00;96607.22;5115830;27;20118;-75
2022/09/28 00:14:18;;;;;;;0.63;0.20;;;;;;;12.13;100.00;96604.06;5099175;27;20483;-75
2022/09/28 00:16:44;;;;;;;0.22;0.22;;;;;;;12.12;100.00;96599.69;5098851;27;20168;-76
2022/09/28 00:19:11;;;;;;;0.65;0.63;;;;;;;12.13;100.00;96600.53;5098776;27;20504;-75
2022/09/28 00:21:38;;;;;;;0.22;0.22;;;;;;;12.11;100.00;96595.31;5098906;27;20027;-75
2022/09/28 00:24:11;;;;;;;0.45;0.32;;;;;;;12.11;100.00;96598.00;5115643;27;20023;-76
2022/09/28 00:26:45;;;;;;;0.32;0.32;;;;;;;12.07;100.00;96601.03;5116659;27;20513;-75
2022/09/28 00:29:31;;;;;;;0.85;0.52;;;;;;;12.07;100.00;96598.38;5115675;27;20187;-76
2022/09/28 00:32:01;;;;;;;0.20;0.20;;;;;;;12.06;100.00;96602.03;5098591;27;20486;-75
2022/09/28 00:34:35;;;;;;;0.00;0.00;;;;;;;12.02;100.00;96605.94;5115825;27;20505;-78
2022/09/28 00:37:01;;;;;;;0.30;0.30;;;;;;;11.98;100.00;96602.66;5098262;27;20034;-77
2022/09/28 00:39:27;;;;;;;0.32;0.32;;;;;;;11.93;100.00;96602.19;5115616;27;20595;-77
2022/09/28 00:41:53;;;;;;;0.08;0.08;;;;;;;11.85;100.00;96594.78;5115567;27;20042;-77
2022/09/28 00:44:25;;;;;;;0.40;0.30;;;;;;;11.87;100.00;96600.84;5098279;27;20027;-77
2022/09/28 00:47:03;;;;;;;0.95;0.75;;;;;;;11.75;100.00;96601.88;5115659;27;20130;-77
2022/09/28 00:49:40;;;;;;;0.52;0.52;;;;;;;11.81;100.00;96597.84;5133974;27;20023;-77
2022/09/28 00:52:07;;;;;;;1.42;0.43;;;;;;;11.74;100.00;96591.28;5115214;27;20390;-76
2022/09/28 00:54:33;;;;;;;0.45;0.22;;;;;;;11.79;100.00;96599.78;5115144;27;20102;-76
2022/09/28 00:57:00;;;;;;;0.68;0.60;;;;;;;11.82;100.00;96594.19;5115510;27;20019;-76
2022/09/28 00:59:25;;;;;;;6.88;1.95;;;;;;;11.73;100.00;96589.56;5141111;27;20497;-76
2022/09/28 01:01:51;;;;;;;2.28;0.80;;;;;;;11.74;100.00;96581.44;5132199;27;20023;-78
2022/09/28 01:04:17;;;;;;;0.20;0.10;;;;;;;11.72;100.00;96583.34;5098156;27;20128;-76
2022/09/28 01:06:43;;;;;;;2.72;1.00;;;;;;;11.77;100.00;96589.22;5097803;27;20406;-76
2022/09/28 01:09:09;;;;;;;0.20;0.20;;;;;;;11.74;100.00;96575.22;5114764;27;20058;-76
2022/09/28 01:11:37;;;;;;;0.47;0.47;;;;;;;11.79;100.00;96583.72;5114936;27;20028;-76
2022/09/28 01:14:05;;;;;;;0.20;0.20;;;;;;;11.78;100.00;96576.69;5097937;27;20056;-76
2022/09/28 01:16:53;;;;;;;0.35;0.20;;;;;;;11.76;100.00;96570.56;5096835;27;20375;-77
2022/09/28 01:19:42;;;;;;;0.20;0.20;;;;;;;11.87;100.00;96570.56;5097585;27;20175;-76
2022/09/28 01:22:31;;;;;;;0.20;0.15;;;;;;;11.82;100.00;96583.47;5114836;27;20015;-77
2022/09/28 01:25:28;;;;;;;0.05;0.05;;;;;;;11.90;100.00;96583.69;5114614;27;20023;-77
2022/09/28 01:27:57;;;;;;;0.38;0.38;;;;;;;11.90;100.00;96571.13;5063779;27;20550;-76
2022/09/28 01:30:23;;;;;;;0.60;0.40;;;;;;;11.84;100.00;96571.63;5114476;27;20027;-76
2022/09/28 01:32:51;;;;;;;0.20;0.20;;;;;;;11.76;100.00;96570.56;5097440;27;20019;-77
2022/09/28 01:35:22;;;;;;;0.57;0.50;;;;;;;11.76;100.00;96578.59;5132995;27;20011;-76
2022/09/28 01:38:18;;;;;;;0.30;0.30;;;;;;;11.72;100.00;96574.50;5132636;27;20546;-76
2022/09/28 01:40:45;;;;;;;0.52;0.43;;;;;;;11.67;100.00;96574.81;5113772;27;20030;-75
2022/09/28 01:43:20;;;;;;;0.30;0.30;;;;;;;11.67;100.00;96579.34;5114421;27;20030;-77
2022/09/28 01:45:49;;;;;;;1.63;0.52;;;;;;;11.62;100.00;96576.19;5097041;27;20398;-76
2022/09/28 01:48:20;;;;;;;0.38;0.32;;;;;;;11.62;100.00;96584.22;5097239;27;20193;-76
2022/09/28 01:50:47;;;;;;;0.10;0.10;;;;;;;11.60;100.00;96578.13;5096764;27;20033;-76
2022/09/28 01:53:32;;;;;;;0.75;0.60;;;;;;;11.59;100.00;96565.72;5114292;27;20022;-76
2022/09/28 01:56:03;;;;;;;0.00;0.00;;;;;;;11.61;100.00;96577.16;5097222;27;20486;-76
2022/09/28 01:59:02;;;;;;;0.28;0.22;;;;;;;11.54;100.00;96586.66;5097148;27;20411;-76
2022/09/28 02:01:40;;;;;;;2.50;0.55;;;;;;;11.47;100.00;96588.16;5097012;27;20035;-77
2022/09/28 02:04:24;;;;;;;0.68;0.68;;;;;;;11.47;100.00;96599.72;5096890;27;20448;-77
2022/09/28 02:06:55;;;;;;;0.52;0.47;;;;;;;11.35;100.00;96590.00;5113786;27;20119;-76
2022/09/28 02:09:31;;;;;;;0.43;0.43;;;;;;;11.37;100.00;96604.97;5113825;27;20539;-76
2022/09/28 02:12:00;;;;;;;1.23;0.70;;;;;;;11.39;100.00;96607.50;5113623;28;20042;-77
2022/09/28 02:14:27;;;;;;;0.68;0.50;;;;;;;11.32;100.00;96617.00;5113994;27;20470;-77
2022/09/28 02:16:53;;;;;;;1.17;0.77;;;;;;;11.36;100.00;96624.66;5096593;27;20034;-76
2022/09/28 02:19:25;;;;;;;0.50;0.50;;;;;;;11.32;100.00;96623.19;5096806;27;20026;-77
2022/09/28 02:22:02;;;;;;;1.63;1.08;;;;;;;11.33;100.00;96618.69;5096463;27;20027;-77
2022/09/28 02:24:36;;;;;;;0.45;0.35;;;;;;;11.38;100.00;96628.06;5096667;27;20039;-76
2022/09/28 02:27:19;;;;;;;1.17;0.95;;;;;;;11.39;100.00;96634.25;5096497;27;20511;-77
2022/09/28 02:29:44;;;;;;;0.73;0.70;;;;;;;11.28;100.00;96627.09;5096323;27;20054;-77
2022/09/28 02:32:10;;;;;;;0.50;0.50;;;;;;;11.28;100.00;96620.91;5113740;27;20031;-78
2022/09/28 02:34:35;;;;;;;2.05;0.73;;;;;;;11.29;100.00;96618.09;5113375;28;20034;-75
2022/09/28 02:37:02;;;;;;;2.05;1.05;;;;;;;11.34;100.00;96626.63;5096401;27;20035;-76
2022/09/28 02:39:28;;;;;;;0.15;0.15;;;;;;;11.34;100.00;96625.75;5096687;28;20031;-75
2022/09/28 02:42:06;;;;;;;1.10;1.02;;;;;;;11.27;100.00;96625.41;5113007;28;20505;-76
2022/09/28 02:44:50;;;;;;;0.40;0.30;;;;;;;11.28;100.00;96640.50;5131671;28;20037;-76
2022/09/28 02:47:42;;;;;;;0.55;0.55;;;;;;;11.26;100.00;96636.22;5113331;28;20030;-77
2022/09/28 02:50:26;;;;;;;0.32;0.32;;;;;;;11.23;100.00;96639.13;5111167;28;20031;-76
2022/09/28 02:53:07;;;;;;;1.38;0.65;;;;;;;11.19;100.00;96646.56;5113086;28;20023;-77
2022/09/28 02:56:01;;;;;;;0.63;0.45;;;;;;;11.23;100.00;96645.34;5096225;28;20030;-76
2022/09/28 02:58:35;;;;;;;8.45;0.50;;;;;;;11.24;100.00;96635.50;5131574;28;20038;-77
2022/09/28 03:01:06;;;;;;;0.73;0.52;;;;;;;11.16;100.00;96632.56;5113226;28;20085;-77
2022/09/28 03:03:59;;;;;;;0.75;0.52;;;;;;;11.26;100.00;96641.56;5113250;28;20502;-76
2022/09/28 03:06:30;;;;;;;0.20;0.20;;;;;;;11.22;100.00;96632.94;5104431;28;20028;-77
2022/09/28 03:09:04;;;;;;;4.28;1.90;;;;;;;11.22;100.00;96646.34;5113236;28;20027;-76
2022/09/28 03:11:35;;;;;;;0.85;0.43;;;;;;;11.21;100.00;96654.47;5113448;28;20041;-78
2022/09/28 03:14:02;;;;;;;0.63;0.43;;;;;;;11.25;100.00;96656.81;5095767;28;20115;-78
2022/09/28 03:16:30;;;;;;;0.77;0.77;;;;;;;11.26;100.00;96660.31;5096436;28;20034;-78
2022/09/28 03:18:56;;;;;;;1.05;0.60;;;;;;;11.22;100.00;96665.06;5096355;28;20030;-79
2022/09/28 03:21:21;;;;;;;3.20;1.48;;;;;;;11.22;100.00;96667.75;5096230;28;20027;-77
2022/09/28 03:23:47;;;;;;;0.98;0.93;;;;;;;11.20;100.00;96671.50;5096067;28;20478;-78
2022/09/28 03:26:13;;;;;;;1.80;1.23;;;;;;;11.19;100.00;96664.47;5096012;28;20518;-76
2022/09/28 03:28:39;;;;;;;1.15;0.93;;;;;;;11.22;100.00;96678.44;5095901;28;20050;-76
2022/09/28 03:31:05;;;;;;;3.83;1.77;;;;;;;11.12;100.00;96677.47;5095794;28;20023;-77
2022/09/28 03:33:31;;;;;;;1.33;1.23;;;;;;;11.17;100.00;96672.59;5113003;28;20019;-77
2022/09/28 03:35:56;;;;;;;8.43;1.85;;;;;;;11.09;100.00;96663.47;5095699;28;20031;-76
2022/09/28 03:38:22;;;;;;;15.90;1.85;;;;;;;11.15;100.00;96674.53;5095955;27;20034;-76
2022/09/28 03:40:58;;;;;;;1.27;1.00;;;;;;;11.11;100.00;96683.78;5098689;27;20110;-78
2022/09/28 03:43:25;;;;;;;2.88;1.52;;;;;;;11.05;100.00;96672.69;5099461;27;20034;-77
2022/09/28 03:45:55;;;;;;;0.80;0.80;;;;;;;11.14;100.00;96680.84;5117566;27;20042;-82
2022/09/28 03:48:27;;;;;;;1.52;0.80;;;;;;;11.09;100.00;96680.38;5099882;27;20123;-81
2022/09/28 03:50:53;;;;;;;4.53;2.35;;;;;;;11.09;100.00;96669.66;5099777;27;20061;-81
2022/09/28 03:53:20;;;;;;;1.58;1.10;;;;;;;11.09;100.00;96667.00;5099859;27;20023;-82
2022/09/28 03:55:45;;;;;;;2.13;1.10;;;;;;;11.02;100.00;96668.44;5099991;27;20056;-82
2022/09/28 03:58:11;;;;;;;7.63;1.10;;;;;;;11.03;100.00;96674.66;5100012;27;20031;-82
2022/09/28 04:00:39;;;;;;;1.67;1.58;;;;;;;11.06;100.00;96679.75;5100000;27;20035;-82
2022/09/28 04:03:05;;;;;;;2.13;1.58;;;;;;;11.07;100.00;96673.44;5099909;27;20039;-82
2022/09/28 04:05:30;;;;;;;1.08;1.00;;;;;;;11.14;100.00;96683.53;5117093;27;20031;-83
2022/09/28 04:07:56;;;;;;;1.30;1.05;;;;;;;11.17;100.00;96674.41;5117065;27;20041;-83
2022/09/28 04:10:23;;;;;;;2.20;1.58;;;;;;;11.21;100.00;96675.88;5117214;27;20058;-81
2022/09/28 04:12:49;;;;;;;6.28;1.40;;;;;;;11.20;100.00;96661.63;5099736;27;20034;-82
2022/09/28 04:15:15;;;;;;;1.25;1.15;;;;;;;11.21;100.00;96652.66;5099775;27;20031;-82
2022/09/28 04:17:41;;;;;;;6.10;2.33;;;;;;;11.29;100.00;96660.06;5099504;27;20019;-82
2022/09/28 04:20:07;;;;;;;1.95;1.38;;;;;;;11.26;100.00;96660.31;5099122;27;20114;-77
2022/09/28 04:22:33;;;;;;;1.80;1.27;;;;;;;11.28;100.00;96680.66;5098990;27;20027;-77
2022/09/28 04:24:59;;;;;;;1.77;0.80;;;;;;;11.18;100.00;96684.16;5098452;27;20084;-75
2022/09/28 04:30:09;;;;;;;0.50;0.50;;;;;;;10.96;100.00;96679.63;5097032;28;20051;-77
2022/09/28 04:32:34;;;;;;;9.98;1.60;;;;;;;10.98;100.00;96672.34;5075827;28;20023;-77
2022/09/28 04:35:00;;;;;;;0.60;0.60;;;;;;;11.04;100.00;96682.56;5092385;28;20493;-76
2022/09/28 04:37:26;;;;;;;0.90;0.70;;;;;;;11.09;100.00;96672.34;5075459;28;20479;-79
2022/09/28 04:39:51;;;;;;;0.65;0.52;;;;;;;11.19;100.00;96676.03;5075404;28;20114;-77
2022/09/28 04:42:17;;;;;;;0.90;0.90;;;;;;;11.26;100.00;96666.50;5075412;28;20034;-77
2022/09/28 04:44:42;;;;;;;4.43;1.70;;;;;;;11.31;100.00;96661.66;5075277;28;20034;-77
2022/09/28 04:47:08;;;;;;;0.85;0.65;;;;;;;11.38;100.00;96662.88;5075209;28;20564;-78
2022/09/28 04:49:37;;;;;;;1.38;0.82;;;;;;;11.53;100.00;96660.81;5074841;28;20034;-77
2022/09/28 04:52:04;;;;;;;3.05;1.23;;;;;;;11.64;100.00;96666.16;5094040;28;20024;-77
2022/09/28 04:54:29;;;;;;;11.95;6.38;;;;;;;11.74;100.00;96661.81;5076233;28;20487;-77
2022/09/28 04:56:56;;;;;;;4.18;2.53;;;;;;;11.74;100.00;96639.50;5094673;28;20038;-77
2022/09/28 04:59:22;;;;;;;1.63;0.80;;;;;;;11.86;100.00;96649.22;5094259;28;20039;-77
2022/09/28 05:01:48;;;;;;;1.60;0.85;;;;;;;12.01;100.00;96657.84;5094762;28;20031;-77
2022/09/28 05:04:13;;;;;;;2.60;1.05;;;;;;;12.37;100.00;96666.38;5077599;28;20038;-77
2022/09/28 05:06:39;;;;;;;1.52;1.42;;;;;;;13.17;100.00;96677.44;5077235;28;20031;-77
2022/09/28 05:09:05;;;;;;;7.75;3.33;;;;;;;14.43;100.00;96679.63;5094399;28;20023;-77
2022/09/28 05:11:31;;;;;;;2.60;1.55;;;;;;;15.47;100.00;96626.66;5094293;28;20031;-78
2022/09/28 05:13:56;;;;;;;1.52;1.02;;;;;;;16.66;100.00;96613.91;5077502;28;20030;-78
2022/09/28 05:16:24;;;;;;;3.15;1.60;;;;;;;18.24;100.00;96613.50;5077222;28;20035;-78
2022/09/28 05:18:54;;;;;;;0.85;0.60;;;;;;;19.57;100.00;96576.94;5077669;28;20029;-78
2022/09/28 05:21:20;;;;;;;0.93;0.90;;;;;;;20.52;87.97;96544.06;5093764;28;20506;-78
2022/09/28 05:23:46;;;;;;;2.10;1.38;;;;;;;20.87;82.76;96517.28;5094193;28;20028;-76
2022/09/28 05:26:12;;;;;;;0.60;0.60;;;;;;;21.29;78.60;96495.78;5077068;28;20035;-76
2022/09/28 05:28:38;;;;;;;1.02;0.57;;;;;;;22.27;75.43;96487.25;5080997;28;20044;-78
2022/09/28 05:31:04;;;;;;;2.17;1.13;;;;;;;22.84;71.48;96477.13;5110996;28;20026;-78
2022/09/28 05:33:31;;;;;;;4.50;2.03;;;;;;;22.42;70.74;96460.78;5092468;28;20028;-78
2022/09/28 05:35:57;;;;;;;1.98;1.35;;;;;;;22.36;69.49;96435.16;5093930;28;20128;-78
2022/09/28 05:38:22;;;;;;;2.85;1.55;;;;;;;22.51;69.21;96433.19;5093877;28;20027;-78
2022/09/28 05:40:48;;;;;;;0.88;0.70;;;;;;;23.54;65.49;96429.72;5100986;28;20023;-78
2022/09/28 05:43:14;;;;;;;2.67;1.38;;;;;;;24.12;63.53;96407.28;5076960;28;20027;-78
2022/09/28 05:45:39;;;;;;;3.60;2.42;;;;;;;24.51;60.77;96391.97;5076785;28;20038;-78
2022/09/28 05:48:05;;;;;;;2.25;1.02;;;;;;;25.66;58.02;96384.00;5085908;28;20027;-79
2022/09/28 05:50:30;;;;;;;0.55;0.45;;;;;;;25.97;55.55;96375.84;5079154;28;20031;-79
2022/09/28 05:52:58;;;;;;;6.30;1.65;;;;;;;25.14;56.56;96363.09;5093645;28;20024;-79
2022/09/28 05:55:24;;;;;;;4.10;2.05;;;;;;;25.12;57.57;96360.59;5076758;28;20062;-78
2022/09/28 05:57:50;;;;;;;3.42;1.98;;;;;;;25.94;55.54;96342.53;5086730;28;20030;-79
2022/09/28 06:00:15;;;;;;;0.88;0.88;;;;;;;26.19;53.25;96341.56;5100723;28;20023;-79
2022/09/28 06:02:41;;;;;;;0.93;0.93;;;;;;;27.07;51.95;96334.03;5109853;27;20105;-79
2022/09/28 06:05:07;;;;;;;1.00;0.90;;;;;;;27.33;49.74;96327.41;5110233;28;20111;-79
2022/09/28 06:07:32;;;;;;;0.70;0.68;;;;;;;26.48;52.92;96341.97;5100340;28;20135;-79
2022/09/28 06:09:58;;;;;;;2.50;0.88;;;;;;;27.23;50.74;96336.19;5101435;28;20115;-79
2022/09/28 06:12:24;;;;;;;0.30;0.30;;;;;;;27.96;47.50;96301.22;5076537;28;20096;-79
2022/09/28 06:14:50;;;;;;;2.03;1.45;;;;;;;27.42;49.46;96323.28;5102653;28;20020;-79
2022/09/28 06:17:15;;;;;;;3.22;1.48;;;;;;;27.11;51.37;96346.25;5080565;28;20380;-78
2022/09/28 06:19:41;;;;;;;1.85;1.40;;;;;;;26.80;49.75;96316.16;5109866;28;20415;-79
2022/09/28 06:22:07;;;;;;;0.40;0.40;;;;;;;27.53;47.49;96311.56;5108996;28;20057;-80
2022/09/28 06:24:33;;;;;;;0.75;0.75;;;;;;;28.54;46.09;96303.31;5110093;28;20092;-82
2022/09/28 06:26:58;;;;;;;0.63;0.52;;;;;;;29.03;44.44;96315.78;5084669;28;20479;-78
2022/09/28 06:29:24;;;;;;;0.47;0.47;;;;;;;28.66;45.42;96314.34;5081835;28;20039;-79
2022/09/28 06:31:50;;;;;;;1.48;1.38;;;;;;;29.81;45.08;96337.34;5096750;27;20019;-79
2022/09/28 06:34:16;;;;;;;1.67;0.75;;;;;;;30.26;43.20;96326.38;5113640;28;20072;-78
2022/09/28 06:36:41;;;;;;;1.33;0.70;;;;;;;30.43;42.42;96311.53;5096294;27;20023;-80
2022/09/28 06:39:07;;;;;;;0.30;0.30;;;;;;;30.53;41.80;96320.00;5096360;27;20057;-79
2022/09/28 06:41:33;;;;;;;5.82;1.63;;;;;;;29.79;43.81;96323.78;5097784;28;20517;-79
2022/09/28 06:43:58;;;;;;;0.60;0.60;;;;;;;30.60;42.24;96326.19;5087774;28;20059;-79
2022/09/28 06:46:24;;;;;;;2.63;1.70;;;;;;;31.36;41.67;96332.91;5096680;28;20497;-78
2022/09/28 06:48:49;;;;;;;0.63;0.50;;;;;;;31.39;39.68;96318.59;5106202;28;20026;-79
2022/09/28 06:51:15;;;;;;;0.80;0.80;;;;;;;31.69;39.18;96312.63;5112205;28;20034;-79
2022/09/28 06:53:41;;;;;;;0.70;0.55;;;;;;;32.41;38.44;96304.88;5113226;28;20035;-80
2022/09/28 06:56:10;;;;;;;2.05;1.63;;;;;;;32.37;38.00;96309.25;5108120;28;20079;-79
2022/09/28 06:58:36;;;;;;;1.75;1.13;;;;;;;32.91;38.48;96323.91;5109366;28;20023;-79
2022/09/28 07:01:02;;;;;;;2.95;0.60;;;;;;;33.59;37.03;96311.03;5083503;28;20046;-80
2022/09/28 07:03:28;;;;;;;0.50;0.50;;;;;;;33.44;34.84;96297.09;5118019;28;20076;-80
2022/09/28 07:05:55;;;;;;;0.45;0.45;;;;;;;32.89;35.83;96287.28;5086004;28;20433;-79
2022/09/28 07:08:24;;;;;;;5.38;0.45;;;;;;;33.05;36.75;96296.53;5094648;28;20399;-79
2022/09/28 07:10:57;;;;;;;0.40;0.40;;;;;;;33.42;35.28;96286.25;5092604;28;20035;-80
2022/09/28 07:13:25;;;;;;;2.25;0.90;;;;;;;34.26;35.17;96313.81;5099849;27;20097;-80
2022/09/28 07:15:55;;;;;;;0.55;0.55;;;;;;;34.25;34.92;96306.59;5089764;27;20542;-80
2022/09/28 07:18:20;;;;;;;0.93;0.90;;;;;;;33.60;36.93;96290.53;5127526;27;20382;-79
2022/09/28 07:20:46;;;;;;;2.35;0.90;;;;;;;34.13;34.91;96300.47;5091314;27;20088;-79
2022/09/28 07:23:11;;;;;;;5.72;3.17;;;;;;;34.73;35.19;96300.56;5108855;27;20403;-78
2022/09/28 07:25:43;;;;;;;10.27;3.50;;;;;;;34.63;35.44;96289.47;5092554;28;20122;-79
2022/09/28 07:28:08;;;;;;;10.30;3.63;;;;;;;35.35;34.11;96296.63;5102246;27;20464;-80
2022/09/28 07:30:34;;;;;;;11.95;4.32;;;;;;;35.31;34.76;96287.19;5099779;27;20039;-80
2022/09/28 07:33:00;;;;;;;6.85;2.70;;;;;;;35.08;32.92;96279.41;5116607;27;20083;-78
2022/09/28 07:35:26;;;;;;;6.90;2.50;;;;;;;36.05;31.79;96281.66;5116878;27;20023;-79
2022/09/28 07:38:00;;;;;;;4.32;1.85;;;;;;;35.67;30.72;96269.28;5099453;27;20064;-79
2022/09/28 07:43:15;;;;;;;6.28;2.20;;;;;;;36.80;29.94;96259.94;5119463;27;20410;-78
2022/09/28 07:45:44;;;;;;;3.90;1.98;;;;;;;36.67;29.03;96258.66;5099778;27;20065;-78
2022/09/28 07:48:09;;;;;;;2.90;1.40;;;;;;;37.03;28.50;96244.44;5116340;27;20460;-78
2022/09/28 07:50:35;;;;;;;1.98;1.50;;;;;;;37.13;28.33;96250.72;5099529;27;20159;-79
2022/09/28 07:53:00;;;;;;;3.70;1.55;;;;;;;37.17;28.29;96239.81;5116738;27;20035;-79
2022/09/28 07:55:26;;;;;;;7.32;2.17;;;;;;;36.87;29.31;96225.03;5099352;27;20151;-79
2022/09/28 07:57:59;;;;;;;3.67;1.50;;;;;;;36.30;28.37;96224.94;5099539;27;20027;-80
2022/09/28 08:00:30;;;;;;;8.05;2.95;;;;;;;36.12;29.81;96232.00;5100076;27;20038;-79
2022/09/28 08:02:59;;;;;;;30.42;2.75;;;;;;;36.31;28.95;96226.59;5099546;27;20118;-80
2022/09/28 08:05:29;;;;;;;14.23;3.20;;;;;;;35.98;29.26;96225.41;5116097;27;20483;-78
2022/09/28 08:07:57;;;;;;;3.42;1.83;;;;;;;36.99;29.53;96234.97;5099745;27;20030;-79
2022/09/28 08:10:23;;;;;;;4.53;2.70;;;;;;;36.70;28.71;96229.38;5099158;27;20039;-78
2022/09/28 08:12:53;;;;;;;4.28;1.73;;;;;;;36.53;30.83;96246.53;5098857;27;20091;-78
2022/09/28 08:15:20;;;;;;;7.37;2.87;;;;;;;36.04;30.83;96237.34;5098892;27;20379;-79
2022/09/28 08:17:46;;;;;;;6.65;2.30;;;;;;;35.99;31.04;96234.59;5099127;27;20787;-78
2022/09/28 08:23:05;;;;;;;7.63;2.28;;;;;;;37.03;28.86;96245.25;5118747;27;20034;-79
2022/09/28 08:25:30;;;;;;;3.45;1.60;;;;;;;37.50;27.75;96232.50;5115344;27;20019;-79
2022/09/28 08:27:56;;;;;;;2.50;1.40;;;;;;;37.66;26.39;96225.56;5115741;27;20497;-79
2022/09/28 08:30:21;;;;;;;2.78;1.73;;;;;;;37.26;25.95;96215.69;5115737;27;20042;-79
2022/09/28 08:32:50;;;;;;;13.98;3.45;;;;;;;36.13;28.07;96216.16;5134628;27;20034;-79
2022/09/28 08:35:15;;;;;;;3.78;1.42;;;;;;;34.43;28.25;96206.06;5098740;27;20058;-79
2022/09/28 08:37:41;;;;;;;5.15;1.38;;;;;;;34.03;29.43;96206.00;5115755;27;20050;-78
2022/09/28 08:40:23;;;;;;;6.32;1.98;;;;;;;35.38;29.48;96223.72;5115543;27;20058;-79
2022/09/28 08:43:04;;;;;;;3.92;1.40;;;;;;;36.14;27.25;96226.19;5116197;27;20500;-78
2022/09/28 08:45:34;;;;;;;5.82;2.35;;;;;;;36.32;27.50;96228.25;5114558;27;20047;-78
2022/09/28 08:51:37;;;;;;;2.03;1.25;;;;;;;36.47;25.95;96207.78;5118646;27;20030;-78
2022/09/28 08:54:28;;;;;;;5.38;1.70;;;;;;;36.65;26.84;96221.88;5055642;27;20024;-79
2022/09/28 08:56:58;;;;;;;2.05;1.05;;;;;;;36.94;25.52;96214.38;5098385;27;20038;-79
2022/09/28 08:59:46;;;;;;;3.38;1.50;;;;;;;36.80;27.54;96212.53;5097941;27;20414;-80
2022/09/28 09:02:21;;;;;;;5.53;1.00;;;;;;;37.45;25.10;96216.63;5115343;27;20121;-83
2022/09/28 09:04:48;;;;;;;2.35;1.17;;;;;;;37.43;24.78;96207.69;5110970;27;20371;-83
2022/09/28 09:07:51;;;;;;;4.78;1.98;;;;;;;38.27;25.68;96228.38;5115961;27;20038;-83
2022/09/28 09:10:38;;;;;;;7.72;1.30;;;;;;;37.72;24.72;96225.22;5098995;27;20024;-83
2022/09/28 09:13:41;;;;;;;1.55;0.88;;;;;;;38.21;23.88;96221.22;5115703;27;20049;-83
2022/09/28 09:16:23;;;;;;;1.83;1.05;;;;;;;38.98;23.29;96219.66;5113855;27;20535;-83
2022/09/28 09:18:55;;;;;;;3.95;1.13;;;;;;;39.17;23.10;96206.44;5100570;27;20035;-83
2022/09/28 09:21:39;;;;;;;3.42;1.10;;;;;;;39.54;24.20;96217.47;5099809;27;20059;-80
2022/09/28 09:24:45;;;;;;;3.05;2.30;;;;;;;38.40;23.13;96197.72;5095704;27;20038;-81
2022/09/28 09:27:40;;;;;;;4.57;1.95;;;;;;;38.22;23.65;96178.13;5101114;27;20144;-81
2022/09/28 09:30:15;;;;;;;2.20;1.38;;;;;;;38.29;23.10;96186.97;5107501;27;20043;-82
2022/09/28 09:33:04;;;;;;;11.23;2.78;;;;;;;39.04;23.13;96202.47;5116861;27;20114;-81
2022/09/28 09:35:57;;;;;;;2.85;1.15;;;;;;;38.90;23.18;96196.03;5147391;27;20109;-82
2022/09/28 09:38:47;;;;;;;2.97;1.27;;;;;;;38.41;22.40;96190.16;5106346;27;20109;-82
2022/09/28 09:41:45;;;;;;;1.95;1.30;;;;;;;37.98;22.91;96193.03;5115517;27;20555;-83
2022/09/28 09:44:29;;;;;;;2.85;1.13;;;;;;;38.73;22.88;96208.91;5115400;27;20032;-82
2022/09/28 09:46:54;;;;;;;2.08;0.98;;;;;;;38.66;23.21;96206.50;5115688;27;20023;-82
2022/09/28 09:49:24;;;;;;;11.32;3.08;;;;;;;38.79;23.68;96210.53;5115576;27;20026;-82
2022/09/28 09:52:16;;;;;;;6.80;1.55;;;;;;;38.63;22.83;96195.94;5098880;27;20038;-83
2022/09/28 09:54:49;;;;;;;1.15;0.80;;;;;;;37.48;22.53;96179.75;5107826;27;20027;-81
2022/09/28 09:57:24;;;;;;;1.42;0.90;;;;;;;35.81;23.78;96149.75;5115379;27;20019;-81
2022/09/28 09:59:49;;;;;;;2.67;1.20;;;;;;;36.31;24.92;96187.59;5097650;27;20163;-83
2022/09/28 10:02:24;;;;;;;4.50;1.15;;;;;;;36.94;25.00;96205.16;5114307;27;20106;-83
2022/09/28 10:05:13;;;;;;;3.38;1.23;;;;;;;37.33;23.64;96174.31;5108587;27;20451;-83
2022/09/28 10:07:50;;;;;;;2.70;1.45;;;;;;;37.58;23.59;96199.16;5111193;27;20087;-82
2022/09/28 10:10:24;;;;;;;2.03;1.10;;;;;;;38.63;22.53;96189.50;5114273;27;20027;-83
2022/09/28 10:12:50;;;;;;;5.88;1.30;;;;;;;39.22;22.11;96202.72;5114653;27;20027;-83
2022/09/28 10:15:23;;;;;;;6.50;1.10;;;;;;;38.98;22.67;96191.69;5114364;27;20470;-82
2022/09/28 10:17:49;;;;;;;7.47;2.47;;;;;;;37.57;22.78;96174.31;5090810;27;20023;-82
2022/09/28 10:20:17;;;;;;;6.35;1.30;;;;;;;38.08;23.20;96194.03;5114708;27;20030;-83
2022/09/28 10:22:43;;;;;;;2.15;1.08;;;;;;;39.04;21.87;96191.28;5113933;27;20027;-83
2022/09/28 10:25:10;;;;;;;1.25;0.85;;;;;;;39.41;20.54;96183.88;5097260;27;20102;-82
2022/09/28 10:27:40;;;;;;;2.25;0.90;;;;;;;39.41;20.36;96179.09;5096716;27;20035;-84
2022/09/28 10:30:07;;;;;;;3.03;0.90;;;;;;;39.17;21.52;96186.84;5097315;27;20107;-84
2022/09/28 10:32:37;;;;;;;1.42;1.00;;;;;;;39.27;21.25;96171.84;5131657;27;20421;-82
2022/09/28 10:35:18;;;;;;;3.10;1.20;;;;;;;38.70;21.16;96170.38;5114579;28;20432;-83
2022/09/28 10:37:53;;;;;;;3.70;1.20;;;;;;;37.08;24.01;96158.72;5102973;28;20031;-83
2022/09/28 10:40:36;;;;;;;2.15;1.10;;;;;;;35.42;24.42;96149.69;5131221;27;20396;-84
2022/09/28 10:43:14;;;;;;;2.90;0.88;;;;;;;33.57;26.57;96136.53;5097938;28;20027;-82
2022/09/28 10:45:40;;;;;;;2.75;1.00;;;;;;;34.90;25.67;96166.00;5114067;28;20042;-83
2022/09/28 10:48:15;;;;;;;1.17;0.98;;;;;;;36.08;23.83;96160.50;5098452;27;20023;-83
2022/09/28 10:50:41;;;;;;;6.68;1.67;;;;;;;35.81;24.77;96164.53;5118338;27;20039;-83
2022/09/28 10:53:25;;;;;;;1.15;0.90;;;;;;;36.99;23.11;96177.25;5118538;27;20023;-83
2022/09/28 10:55:59;;;;;;;5.13;1.10;;;;;;;36.74;23.70;96161.56;5100956;27;20075;-83
2022/09/28 10:58:28;;;;;;;0.90;0.88;;;;;;;36.73;23.42;96157.13;5100872;27;20058;-83
2022/09/28 11:01:06;;;;;;;15.85;1.73;;;;;;;34.81;25.67;96133.25;5100485;27;20402;-83
2022/09/28 11:03:32;;;;;;;4.90;1.50;;;;;;;33.49;27.62;96141.78;5100991;27;20039;-83
2022/09/28 11:06:04;;;;;;;1.95;1.10;;;;;;;31.28;29.72;96133.50;5118194;27;20108;-82
2022/09/28 11:08:34;;;;;;;;;;;;;;;30.75;30.39;96145.25;5117890;27;20449;-82
2022/09/28 11:11:06;;;;;;;3.42;1.40;;;;;;;30.22;33.27;96149.44;5110613;27;19919;-83
2022/09/28 11:13:56;;;;;;;3.25;2.20;;;;;;;29.56;33.01;96150.22;5100409;27;20058;-85
2022/09/28 11:16:28;;;;;;;1.33;0.93;;;;;;;28.98;31.98;96147.66;5100249;27;20035;-83
2022/09/28 11:19:03;;;;;;;5.47;1.60;;;;;;;28.63;33.44;96152.41;5099238;27;20122;-83
2022/09/28 11:21:31;;;;;;;1.67;1.05;;;;;;;28.58;32.92;96146.81;5117536;27;20126;-83
2022/09/28 11:24:00;;;;;;;1.05;0.95;;;;;;;29.05;33.44;96156.63;5100008;27;20076;-82
2022/09/28 11:26:27;;;;;;;5.93;1.80;;;;;;;31.31;31.06;96160.63;5099997;27;20043;-83
2022/09/28 11:28:55;;;;;;;2.85;1.60;;;;;;;34.22;26.91;96143.31;5100263;27;20134;-83
2022/09/28 11:31:25;;;;;;;2.70;1.10;;;;;;;35.54;24.95;96155.75;5117991;27;20410;-83
2022/09/28 11:34:05;;;;;;;7.07;1.27;;;;;;;37.26;23.63;96166.31;5117227;27;20019;-82
2022/09/28 11:36:44;;;;;;;6.43;1.50;;;;;;;35.69;24.79;96124.25;5100326;27;20027;-83
2022/09/28 11:39:16;;;;;;;2.55;1.08;;;;;;;33.73;26.31;96113.28;5117821;27;20398;-83
2022/09/28 11:41:50;;;;;;;4.78;1.60;;;;;;;33.20;28.94;96135.88;5117922;27;20023;-82
2022/09/28 11:44:40;;;;;;;4.07;1.20;;;;;;;32.74;28.75;96121.78;5117583;27;20031;-82
2022/09/28 11:47:19;;;;;;;11.93;2.03;;;;;;;32.05;30.70;96129.34;5134536;27;20494;-82
2022/09/28 11:50:03;;;;;;;3.10;1.30;;;;;;;31.01;31.70;96126.00;5099824;27;20058;-83
2022/09/28 11:52:38;;;;;;;13.82;2.40;;;;;;;30.31;33.05;96128.59;5135604;27;20083;-82
2022/09/28 11:55:18;;;;;;;5.45;1.88;;;;;;;29.76;34.50;96130.44;5135339;27;20111;-83
2022/09/28 11:57:46;;;;;;;7.80;1.50;;;;;;;29.14;34.45;96135.88;5100185;27;20035;-83
2022/09/28 12:00:13;;;;;;;5.45;1.80;;;;;;;29.17;34.19;96132.63;5099358;27;20027;-83